< < Back
Terminal Aerodrome Forecast


Current Version              Previous Versions:   1  2  3  4  5  6  7  8  9  

Terminal Aerodrome Forecast

466
FTUS44 KMOB 292327
TAFMOB
TAF
KMOB 292327Z 3000/3024 15008KT P6SM FEW035 BKN250
     FM300600 15005KT P6SM SCT060
     FM301200 14007KT 4SM BR OVC007
     FM301500 16015KT P6SM OVC025=

Latest METAR

064
SAUS80 KWBC 292300
MTRMOB
METAR KMOB 292256Z 15008KT 10SM FEW035 BKN250 27/21 A2992 RMK AO2 SLP128
T02720206


USA.gov is the U.S. government's official web portal to all federal, state and local government web resources and services.